createdAt,value
2023-03-13T00:01:20.670Z,8.17
2023-03-13T00:03:47.938Z,8.21
2023-03-13T00:06:15.586Z,8.27
2023-03-13T00:08:42.871Z,8.34
2023-03-13T00:11:11.461Z,8.39
2023-03-13T00:13:38.721Z,8.26
2023-03-13T00:16:11.384Z,8.39
2023-03-13T00:18:38.256Z,8.43
2023-03-13T00:21:09.750Z,8.43
2023-03-13T00:23:38.093Z,8.53
2023-03-13T00:26:08.098Z,8.46
2023-03-13T00:28:36.664Z,8.49
2023-03-13T00:31:08.765Z,8.43
2023-03-13T00:33:37.089Z,8.56
2023-03-13T00:36:07.521Z,8.38
2023-03-13T00:38:34.432Z,8.34
2023-03-13T00:41:12.384Z,8.33
2023-03-13T00:43:40.997Z,8.29
2023-03-13T00:46:08.579Z,8.40
2023-03-13T00:48:35.455Z,8.22
2023-03-13T00:51:03.510Z,8.43
2023-03-13T00:53:30.183Z,8.43
2023-03-13T00:56:08.360Z,8.55
2023-03-13T00:58:37.289Z,8.35
2023-03-13T01:01:20.929Z,8.36
2023-03-13T01:03:50.944Z,8.34
2023-03-13T01:06:20.764Z,8.30
2023-03-13T01:08:47.676Z,8.32
2023-03-13T01:11:23.084Z,8.20
2023-03-13T01:13:53.383Z,8.21
2023-03-13T01:16:21.827Z,8.12
2023-03-13T01:18:51.625Z,8.20
2023-03-13T01:21:20.427Z,8.21
2023-03-13T01:23:48.352Z,8.18
2023-03-13T01:26:15.091Z,8.37
2023-03-13T01:28:41.750Z,8.05
2023-03-13T01:31:23.260Z,7.94
2023-03-13T01:33:52.507Z,7.75
2023-03-13T01:36:19.678Z,7.70
2023-03-13T01:38:54.300Z,7.51
2023-03-13T01:41:22.398Z,7.49
2023-03-13T01:43:49.440Z,7.65
2023-03-13T01:46:28.025Z,7.62
2023-03-13T01:49:20.123Z,7.62
2023-03-13T01:51:53.587Z,7.46
2023-03-13T01:54:29.414Z,7.40
2023-03-13T01:57:01.408Z,7.60
2023-03-13T01:59:38.379Z,7.46
2023-03-13T02:02:06.059Z,7.47
2023-03-13T02:04:38.377Z,7.40
2023-03-13T02:07:11.331Z,7.16
2023-03-13T02:09:42.009Z,7.05
2023-03-13T02:12:16.432Z,7.12
2023-03-13T02:14:45.580Z,6.74
2023-03-13T02:17:14.000Z,6.78
2023-03-13T02:19:45.234Z,6.82
2023-03-13T02:22:29.050Z,6.70
2023-03-13T02:25:13.874Z,6.75
2023-03-13T02:27:42.043Z,6.74
2023-03-13T02:30:10.165Z,6.50
2023-03-13T02:32:37.392Z,6.69
2023-03-13T02:35:10.077Z,6.82
2023-03-13T02:37:37.513Z,6.55
2023-03-13T02:40:11.856Z,6.31
2023-03-13T02:42:41.424Z,6.56
2023-03-13T02:45:08.803Z,6.55
2023-03-13T02:47:35.482Z,6.59
2023-03-13T02:50:02.165Z,5.90
2023-03-13T02:52:38.127Z,6.33
2023-03-13T02:55:14.875Z,6.37
2023-03-13T02:57:41.482Z,6.33
2023-03-13T03:00:12.796Z,6.27
2023-03-13T03:02:39.759Z,6.13
2023-03-13T03:05:06.786Z,6.30
2023-03-13T03:07:33.641Z,6.29
2023-03-13T03:10:00.252Z,6.19
2023-03-13T03:12:26.880Z,6.19
2023-03-13T03:14:53.578Z,6.08
2023-03-13T03:17:20.474Z,6.13
2023-03-13T03:19:47.110Z,5.92
2023-03-13T03:22:13.774Z,5.74
2023-03-13T03:24:40.470Z,5.63
2023-03-13T03:27:07.146Z,5.45
2023-03-13T03:29:33.759Z,5.54
2023-03-13T03:32:00.409Z,5.56
2023-03-13T03:34:27.158Z,5.80
2023-03-13T03:36:53.811Z,5.62
2023-03-13T03:39:20.467Z,5.66
2023-03-13T03:41:47.096Z,5.74
2023-03-13T03:44:13.767Z,5.86
2023-03-13T03:46:40.528Z,5.78
2023-03-13T03:49:07.184Z,5.89
2023-03-13T03:51:33.804Z,5.71
2023-03-13T03:54:00.508Z,5.82
2023-03-13T03:56:27.192Z,5.81
2023-03-13T03:58:53.790Z,5.62
2023-03-13T04:01:20.411Z,5.74
2023-03-13T04:03:48.532Z,5.74
2023-03-13T04:06:15.266Z,5.72
2023-03-13T04:08:41.980Z,5.72
2023-03-13T04:11:08.683Z,5.62
2023-03-13T04:13:35.330Z,5.62
2023-03-13T04:16:08.241Z,5.71
2023-03-13T04:18:34.966Z,5.53
2023-03-13T04:21:02.750Z,5.26
2023-03-13T04:23:29.394Z,5.13
2023-03-13T04:25:56.075Z,5.09
2023-03-13T04:28:22.731Z,5.28
2023-03-13T04:30:49.514Z,5.32
2023-03-13T04:33:16.203Z,5.31
2023-03-13T04:35:42.901Z,5.08
2023-03-13T04:38:09.594Z,5.21
2023-03-13T04:40:36.202Z,5.34
2023-03-13T04:43:02.842Z,5.10
2023-03-13T04:45:29.471Z,5.20
2023-03-13T04:47:56.241Z,5.17
2023-03-13T04:50:22.872Z,5.20
2023-03-13T04:52:49.783Z,4.95
2023-03-13T04:55:16.763Z,5.05
2023-03-13T04:57:43.521Z,5.11
2023-03-13T05:00:11.647Z,4.88
2023-03-13T05:02:38.274Z,4.88
2023-03-13T05:05:05.249Z,4.74
2023-03-13T05:07:31.906Z,4.81
2023-03-13T05:09:58.521Z,4.95
2023-03-13T05:12:25.193Z,4.73
2023-03-13T05:14:52.682Z,4.84
2023-03-13T05:17:19.349Z,4.80
2023-03-13T05:19:46.022Z,4.98
2023-03-13T05:22:12.639Z,5.14
2023-03-13T05:24:41.768Z,5.24
2023-03-13T05:27:08.847Z,5.18
2023-03-13T05:29:35.714Z,4.85
2023-03-13T05:32:02.346Z,5.00
2023-03-13T05:34:28.965Z,5.03
2023-03-13T05:36:55.663Z,4.78
2023-03-13T05:39:22.387Z,5.00
2023-03-13T05:41:49.283Z,5.10
2023-03-13T05:44:16.014Z,5.18
2023-03-13T05:46:42.653Z,4.99
2023-03-13T05:49:09.342Z,4.91
2023-03-13T05:51:35.976Z,4.58
2023-03-13T05:54:02.580Z,4.68
2023-03-13T05:56:29.211Z,4.62
2023-03-13T05:58:55.904Z,4.80
2023-03-13T06:01:22.615Z,4.82
2023-03-13T06:03:49.388Z,4.74
2023-03-13T06:06:16.152Z,4.92
2023-03-13T06:08:42.767Z,4.92
2023-03-13T06:11:09.412Z,4.82
2023-03-13T06:13:36.084Z,4.78
2023-03-13T06:16:02.811Z,4.81
2023-03-13T06:18:29.706Z,4.80
2023-03-13T06:21:01.077Z,4.89
2023-03-13T06:23:28.257Z,4.98
2023-03-13T06:25:55.081Z,5.13
2023-03-13T06:28:22.344Z,5.28
2023-03-13T06:30:49.020Z,5.20
2023-03-13T06:33:15.777Z,5.38
2023-03-13T06:35:55.884Z,5.37
2023-03-13T06:38:24.795Z,5.58
2023-03-13T06:40:51.483Z,5.61
2023-03-13T06:43:18.896Z,5.78
2023-03-13T06:45:45.776Z,6.07
2023-03-13T06:48:12.436Z,6.21
2023-03-13T06:50:40.588Z,6.32
2023-03-13T06:53:07.594Z,6.32
2023-03-13T06:55:34.221Z,6.64
2023-03-13T06:58:00.849Z,6.75
2023-03-13T07:00:27.724Z,6.99
2023-03-13T07:02:54.394Z,7.03
2023-03-13T07:05:21.041Z,7.19
2023-03-13T07:07:47.696Z,7.28
2023-03-13T07:10:14.446Z,7.48
2023-03-13T07:12:41.190Z,7.46
2023-03-13T07:15:08.469Z,7.65
2023-03-13T07:17:35.397Z,7.68
2023-03-13T07:20:02.592Z,7.42
2023-03-13T07:22:29.258Z,7.72
2023-03-13T07:24:56.087Z,7.89
2023-03-13T07:27:23.217Z,8.03
2023-03-13T07:29:50.146Z,8.15
2023-03-13T07:32:16.835Z,8.18
2023-03-13T07:34:46.294Z,8.36
2023-03-13T07:37:14.499Z,8.39
2023-03-13T07:39:42.383Z,8.37
2023-03-13T07:42:12.728Z,8.47
2023-03-13T07:44:39.402Z,8.19
2023-03-13T07:47:06.989Z,8.48
2023-03-13T07:49:33.988Z,8.49
2023-03-13T07:52:00.657Z,8.65
2023-03-13T07:54:27.345Z,8.75
2023-03-13T07:56:54.052Z,8.86
2023-03-13T07:59:20.732Z,8.83
2023-03-13T08:01:47.376Z,8.50
2023-03-13T08:04:14.499Z,8.27
2023-03-13T08:06:42.081Z,8.15
2023-03-13T08:09:10.089Z,8.09
2023-03-13T08:11:40.380Z,7.91
2023-03-13T08:14:07.325Z,7.91
2023-03-13T08:16:35.142Z,8.03
2023-03-13T08:19:05.969Z,8.17
2023-03-13T08:21:35.255Z,8.53
2023-03-13T08:24:07.043Z,8.66
2023-03-13T08:26:35.899Z,8.86
2023-03-13T08:29:06.307Z,9.06
2023-03-13T08:31:52.849Z,9.11
2023-03-13T08:34:20.068Z,9.46
2023-03-13T08:36:47.436Z,9.81
2023-03-13T08:39:19.395Z,9.83
2023-03-13T08:41:46.650Z,9.89
2023-03-13T08:44:15.512Z,10.00
2023-03-13T08:46:44.089Z,10.10
2023-03-13T08:49:12.256Z,9.88
2023-03-13T08:51:39.637Z,9.95
2023-03-13T08:54:06.672Z,10.17
2023-03-13T08:56:33.339Z,10.28
2023-03-13T08:59:02.058Z,10.30
2023-03-13T09:01:31.075Z,9.95
2023-03-13T09:03:59.166Z,9.69
2023-03-13T09:06:26.589Z,9.88
2023-03-13T09:08:53.379Z,10.19
2023-03-13T09:11:21.438Z,10.25
2023-03-13T09:13:50.335Z,10.22
2023-03-13T09:16:19.585Z,10.31
2023-03-13T09:18:46.402Z,10.35
2023-03-13T09:21:21.858Z,10.52
2023-03-13T09:23:48.770Z,10.78
2023-03-13T09:26:16.717Z,10.86
2023-03-13T09:28:43.904Z,10.69
2023-03-13T09:31:22.820Z,10.70
2023-03-13T09:33:50.385Z,10.94
2023-03-13T09:36:21.568Z,10.90
2023-03-13T09:38:48.904Z,10.35
2023-03-13T09:41:18.508Z,10.13
2023-03-13T09:43:53.600Z,10.34
2023-03-13T09:46:32.254Z,10.50
2023-03-13T09:49:02.878Z,10.86
2023-03-13T09:51:36.515Z,11.01
2023-03-13T09:54:07.196Z,11.11
2023-03-13T09:56:44.203Z,11.09
2023-03-13T09:59:46.908Z,11.34
2023-03-13T10:02:27.366Z,11.38
2023-03-13T10:05:05.231Z,11.13
2023-03-13T10:07:32.051Z,11.19
2023-03-13T10:10:01.270Z,11.47
2023-03-13T10:12:32.586Z,11.66
2023-03-13T10:15:23.605Z,11.97
2023-03-13T10:17:50.461Z,11.93
2023-03-13T10:20:27.223Z,12.11
2023-03-13T10:23:03.285Z,12.00
2023-03-13T10:25:35.267Z,11.77
2023-03-13T10:28:02.664Z,11.92
2023-03-13T10:30:35.557Z,12.07
2023-03-13T10:33:07.889Z,11.91
2023-03-13T10:35:41.594Z,11.96
2023-03-13T10:38:12.877Z,11.92
2023-03-13T10:40:40.350Z,11.97
2023-03-13T10:43:16.344Z,12.10
2023-03-13T10:45:42.974Z,12.12
2023-03-13T10:48:24.167Z,12.20
2023-03-13T10:50:53.336Z,12.29
2023-03-13T10:53:37.299Z,12.36
2023-03-13T10:56:11.753Z,12.45
2023-03-13T10:58:49.646Z,12.42
2023-03-13T11:01:21.183Z,12.34
2023-03-13T11:03:49.920Z,12.41
2023-03-13T11:06:35.283Z,12.43
2023-03-13T11:09:12.191Z,12.53
2023-03-13T11:11:46.296Z,12.56
2023-03-13T11:14:16.823Z,12.47
2023-03-13T11:16:50.721Z,12.49
2023-03-13T11:19:24.203Z,12.63
2023-03-13T11:22:06.054Z,12.79
2023-03-13T11:24:42.513Z,12.78
2023-03-13T11:27:50.655Z,12.89
2023-03-13T11:30:35.886Z,13.21
2023-03-13T11:33:10.231Z,13.65
2023-03-13T11:35:55.308Z,13.66
2023-03-13T11:38:35.585Z,13.98
2023-03-13T11:41:29.855Z,14.27
2023-03-13T11:44:24.733Z,14.90
2023-03-13T11:47:08.806Z,15.03
2023-03-13T11:49:49.115Z,15.23
2023-03-13T11:52:25.826Z,15.53
2023-03-13T11:55:16.996Z,15.76
2023-03-13T11:57:57.061Z,15.88
2023-03-13T12:00:48.214Z,16.74
2023-03-13T12:03:22.563Z,16.54
2023-03-13T12:05:53.466Z,17.21
2023-03-13T12:08:31.719Z,16.73
2023-03-13T12:11:10.141Z,16.52
2023-03-13T12:13:42.179Z,16.42
2023-03-13T12:16:19.354Z,16.40
2023-03-13T12:18:46.665Z,16.18
2023-03-13T12:21:30.816Z,16.14
2023-03-13T12:24:09.662Z,16.09
2023-03-13T12:27:11.176Z,16.02
2023-03-13T12:29:55.115Z,15.88
2023-03-13T12:32:49.517Z,15.99
2023-03-13T12:35:24.180Z,16.00
2023-03-13T12:37:58.170Z,16.06
2023-03-13T12:40:32.419Z,16.19
2023-03-13T12:43:30.667Z,16.23
2023-03-13T12:45:57.324Z,16.40
2023-03-13T12:48:37.631Z,16.94
2023-03-13T12:52:02.797Z,17.25
2023-03-13T12:54:35.242Z,17.63
2023-03-13T12:57:12.928Z,17.73
2023-03-13T12:59:46.394Z,17.70
2023-03-13T13:02:25.771Z,17.73
2023-03-13T13:04:54.969Z,18.27
2023-03-13T13:07:33.449Z,18.62
2023-03-13T13:10:12.009Z,18.75
2023-03-13T13:12:47.409Z,19.19
2023-03-13T13:15:28.993Z,19.78
2023-03-13T13:18:04.498Z,19.76
2023-03-13T13:20:38.490Z,19.49
2023-03-13T13:23:24.970Z,19.49
2023-03-13T13:25:53.674Z,19.96
2023-03-13T13:28:23.079Z,20.42
2023-03-13T13:30:55.969Z,20.08
2023-03-13T13:33:29.123Z,19.74
2023-03-13T13:36:10.947Z,19.38
2023-03-13T13:38:42.084Z,19.87
2023-03-13T13:41:11.724Z,19.48
2023-03-13T13:43:39.326Z,19.77
2023-03-13T13:46:31.290Z,19.77
2023-03-13T13:49:07.736Z,19.98
2023-03-13T13:51:34.382Z,19.98
2023-03-13T13:54:24.134Z,19.75
2023-03-13T13:56:59.699Z,19.24
2023-03-13T14:00:01.891Z,18.83
2023-03-13T14:02:36.305Z,18.95
2023-03-13T14:05:15.686Z,18.86
2023-03-13T14:08:05.073Z,18.60
2023-03-13T14:10:47.231Z,18.60
2023-03-13T14:13:19.577Z,18.73
2023-03-13T14:15:53.042Z,18.67
2023-03-13T14:18:30.749Z,18.52
2023-03-13T14:20:59.183Z,18.70
2023-03-13T14:23:39.900Z,18.68
2023-03-13T14:26:12.394Z,18.71
2023-03-13T14:28:42.488Z,19.05
2023-03-13T14:31:09.992Z,19.25
2023-03-13T14:33:36.728Z,19.41
2023-03-13T14:36:03.572Z,19.58
2023-03-13T14:38:30.524Z,19.66
2023-03-13T14:40:57.222Z,19.60
2023-03-13T14:43:35.511Z,19.57
2023-03-13T14:46:15.560Z,19.45
2023-03-13T14:48:42.472Z,19.54
2023-03-13T14:51:17.616Z,19.45
2023-03-13T14:53:59.250Z,19.51
2023-03-13T14:56:38.221Z,19.35
2023-03-13T14:59:19.747Z,19.78
2023-03-13T15:01:46.867Z,19.57
2023-03-13T15:04:13.661Z,19.44
2023-03-13T15:06:40.328Z,19.06
2023-03-13T15:09:09.913Z,18.98
2023-03-13T15:11:41.275Z,18.65
2023-03-13T15:14:37.798Z,18.55
2023-03-13T15:17:28.020Z,18.44
2023-03-13T15:19:57.086Z,18.33
2023-03-13T15:22:32.266Z,18.30
2023-03-13T15:25:07.849Z,18.15
2023-03-13T15:27:35.198Z,18.27
2023-03-13T15:30:01.886Z,18.27
2023-03-13T15:32:38.319Z,18.11
2023-03-13T15:35:32.655Z,18.39
2023-03-13T15:38:01.448Z,18.34
2023-03-13T15:40:28.662Z,18.36
2023-03-13T15:42:55.631Z,18.47
2023-03-13T15:45:22.456Z,18.54
2023-03-13T15:47:49.230Z,18.58
2023-03-13T15:50:22.401Z,18.54
2023-03-13T15:52:49.132Z,18.60
2023-03-13T15:55:15.860Z,18.58
2023-03-13T15:57:46.214Z,18.77
2023-03-13T16:00:23.303Z,18.83
2023-03-13T16:02:50.112Z,18.87
2023-03-13T16:05:17.459Z,18.51
2023-03-13T16:07:44.599Z,18.17
2023-03-13T16:10:25.472Z,18.11
2023-03-13T16:12:52.990Z,18.10
2023-03-13T16:15:19.704Z,17.83
2023-03-13T16:17:46.467Z,17.41
2023-03-13T16:20:16.958Z,17.46
2023-03-13T16:22:43.882Z,17.76
2023-03-13T16:25:11.590Z,17.94
2023-03-13T16:27:39.437Z,17.91
2023-03-13T16:30:35.019Z,18.06
2023-03-13T16:33:01.729Z,18.01
2023-03-13T16:35:29.499Z,18.10
2023-03-13T16:37:57.320Z,18.08
2023-03-13T16:40:32.390Z,17.90
2023-03-13T16:43:00.016Z,17.75
2023-03-13T16:45:27.312Z,17.76
2023-03-13T16:47:53.952Z,17.58
2023-03-13T16:50:34.015Z,17.64
2023-03-13T16:53:01.078Z,17.51
2023-03-13T16:55:36.401Z,17.54
2023-03-13T16:58:04.162Z,17.41
2023-03-13T17:00:32.137Z,17.36
2023-03-13T17:02:59.323Z,17.13
2023-03-13T17:05:27.504Z,17.01
2023-03-13T17:07:54.354Z,17.18
2023-03-13T17:10:24.810Z,17.21
2023-03-13T17:12:51.656Z,17.05
2023-03-13T17:15:20.128Z,17.06
2023-03-13T17:17:51.799Z,16.59
2023-03-13T17:20:26.348Z,16.27
2023-03-13T17:22:56.127Z,16.19
2023-03-13T17:25:23.068Z,16.25
2023-03-13T17:27:49.753Z,16.33
2023-03-13T17:30:16.364Z,16.26
2023-03-13T17:32:43.099Z,16.05
2023-03-13T17:35:10.528Z,16.09
2023-03-13T17:37:37.254Z,15.92
2023-03-13T17:40:14.549Z,15.86
2023-03-13T17:42:41.192Z,15.85
2023-03-13T17:45:08.568Z,15.50
2023-03-13T17:47:35.240Z,15.18
2023-03-13T17:50:01.938Z,15.05
2023-03-13T17:52:28.671Z,14.88
2023-03-13T17:54:55.347Z,14.88
2023-03-13T17:57:22.872Z,14.93
2023-03-13T17:59:49.683Z,14.96
2023-03-13T18:02:18.108Z,14.97
2023-03-13T18:04:45.195Z,14.94
2023-03-13T18:07:26.970Z,14.95
2023-03-13T18:09:53.749Z,14.87
2023-03-13T18:12:20.789Z,14.69
2023-03-13T18:14:47.785Z,14.65
2023-03-13T18:17:17.935Z,14.07
2023-03-13T18:19:45.378Z,14.25
2023-03-13T18:22:19.048Z,14.00
2023-03-13T18:24:45.788Z,13.71
2023-03-13T18:27:15.075Z,13.95
2023-03-13T18:29:43.043Z,13.93
2023-03-13T18:32:12.613Z,13.81
2023-03-13T18:34:40.768Z,13.55
2023-03-13T18:37:24.829Z,13.14
2023-03-13T18:39:51.552Z,12.97
2023-03-13T18:42:18.724Z,12.79
2023-03-13T18:44:45.370Z,12.69
2023-03-13T18:47:14.059Z,12.88
2023-03-13T18:49:41.220Z,12.96
2023-03-13T18:52:08.411Z,12.74
2023-03-13T18:54:35.147Z,12.89
2023-03-13T18:57:02.004Z,12.98
2023-03-13T18:59:29.655Z,12.95
2023-03-13T19:01:56.416Z,12.88
2023-03-13T19:04:23.062Z,12.86
2023-03-13T19:06:50.212Z,12.82
2023-03-13T19:09:42.375Z,12.53
2023-03-13T19:12:10.238Z,12.45
2023-03-13T19:14:36.908Z,12.49
2023-03-13T19:17:07.188Z,12.47
2023-03-13T19:19:34.610Z,12.50
2023-03-13T19:22:02.120Z,12.34
2023-03-13T19:24:29.225Z,11.84
2023-03-13T19:26:59.004Z,11.94
2023-03-13T19:29:27.337Z,11.91
2023-03-13T19:31:54.837Z,11.99
2023-03-13T19:34:21.969Z,11.81
2023-03-13T19:36:49.800Z,11.86
2023-03-13T19:39:23.862Z,11.89
2023-03-13T19:41:50.893Z,11.85
2023-03-13T19:44:18.752Z,11.80
2023-03-13T19:46:46.248Z,11.46
2023-03-13T19:49:16.478Z,11.50
2023-03-13T19:51:43.130Z,11.43
2023-03-13T19:54:10.856Z,11.30
2023-03-13T19:56:39.402Z,11.36
2023-03-13T19:59:12.775Z,11.31
2023-03-13T20:01:39.441Z,11.16
2023-03-13T20:04:06.090Z,10.69
2023-03-13T20:06:34.666Z,10.48
2023-03-13T20:09:04.783Z,10.65
2023-03-13T20:11:31.437Z,10.44
2023-03-13T20:13:58.458Z,10.59
2023-03-13T20:16:27.751Z,10.58
2023-03-13T20:18:58.024Z,10.56
2023-03-13T20:21:29.676Z,10.51
2023-03-13T20:23:57.891Z,10.20
2023-03-13T20:26:26.286Z,10.11
2023-03-13T20:28:53.445Z,10.08
2023-03-13T20:31:29.497Z,10.13
2023-03-13T20:33:57.178Z,10.07
2023-03-13T20:36:24.107Z,10.11
2023-03-13T20:38:51.032Z,10.12
2023-03-13T20:41:21.096Z,10.14
2023-03-13T20:43:47.704Z,9.64
2023-03-13T20:46:14.378Z,9.78
2023-03-13T20:48:41.654Z,9.30
2023-03-13T20:51:08.771Z,9.30
2023-03-13T20:53:37.335Z,9.43
2023-03-13T20:56:06.882Z,9.20
2023-03-13T20:58:34.076Z,9.40
2023-03-13T21:01:01.619Z,9.51
2023-03-13T21:03:28.676Z,9.42
2023-03-13T21:05:55.363Z,8.96
2023-03-13T21:08:22.760Z,8.58
2023-03-13T21:10:49.400Z,8.84
2023-03-13T21:13:16.110Z,8.79
2023-03-13T21:15:42.787Z,8.94
2023-03-13T21:18:09.441Z,9.01
2023-03-13T21:20:38.901Z,8.73
2023-03-13T21:23:05.589Z,8.56
2023-03-13T21:25:32.245Z,8.48
2023-03-13T21:27:58.886Z,8.68
2023-03-13T21:30:25.498Z,8.71
2023-03-13T21:32:52.150Z,8.44
2023-03-13T21:35:18.890Z,8.45
2023-03-13T21:37:45.739Z,8.18
2023-03-13T21:40:13.111Z,8.01
2023-03-13T21:42:39.926Z,8.00
2023-03-13T21:45:07.618Z,7.93
2023-03-13T21:47:37.126Z,8.09
2023-03-13T21:50:10.065Z,8.13
2023-03-13T21:52:40.813Z,8.28
2023-03-13T21:55:11.554Z,8.30
2023-03-13T21:57:38.656Z,8.35
2023-03-13T22:00:08.248Z,8.30
2023-03-13T22:02:35.786Z,8.14
2023-03-13T22:05:03.777Z,8.35
2023-03-13T22:07:33.370Z,8.32
2023-03-13T22:10:00.319Z,8.17
2023-03-13T22:12:27.553Z,8.05
2023-03-13T22:14:56.125Z,7.83
2023-03-13T22:17:24.055Z,7.83
2023-03-13T22:19:50.686Z,7.99
2023-03-13T22:22:19.910Z,8.06
2023-03-13T22:24:46.729Z,8.07
2023-03-13T22:27:13.686Z,8.13
2023-03-13T22:29:40.279Z,8.15
2023-03-13T22:32:07.076Z,8.18
2023-03-13T22:34:33.686Z,8.19
2023-03-13T22:37:00.356Z,8.01
2023-03-13T22:39:26.952Z,7.97
2023-03-13T22:41:53.614Z,7.90
2023-03-13T22:44:21.097Z,7.84
2023-03-13T22:46:48.273Z,7.69
2023-03-13T22:49:14.908Z,7.55
2023-03-13T22:51:41.619Z,7.46
2023-03-13T22:54:08.231Z,7.57
2023-03-13T22:56:34.982Z,7.43
2023-03-13T22:59:03.099Z,7.42
2023-03-13T23:01:29.810Z,7.29
2023-03-13T23:03:56.640Z,7.43
2023-03-13T23:06:25.123Z,7.50
2023-03-13T23:08:52.215Z,7.48
2023-03-13T23:11:20.274Z,7.45
2023-03-13T23:13:47.100Z,7.48
2023-03-13T23:16:13.879Z,7.34
2023-03-13T23:18:40.943Z,7.18
2023-03-13T23:21:12.049Z,7.43
2023-03-13T23:23:39.223Z,7.33
2023-03-13T23:26:08.887Z,6.57
2023-03-13T23:28:36.778Z,6.62
2023-03-13T23:31:15.115Z,6.57
2023-03-13T23:33:42.481Z,6.63
2023-03-13T23:36:12.299Z,6.82
2023-03-13T23:38:39.114Z,7.04
2023-03-13T23:41:07.382Z,7.04
2023-03-13T23:43:34.981Z,6.75
2023-03-13T23:46:01.843Z,6.85
2023-03-13T23:48:28.884Z,6.81
2023-03-13T23:50:55.748Z,6.79
2023-03-13T23:53:22.869Z,6.32
2023-03-13T23:55:59.086Z,6.58
2023-03-13T23:58:25.865Z,6.65
